Latest Weather Observations for Gingin Airport

IDW60801

Issued at 8:35 pm WST Thursday 30 October 2014 (issued every 30 minutes, with the page automatically refreshed every 10 minutes)

About weather observations | Map of weather stations | Latest weather observations for WA | Other Formats
Station Details ID: 009178 Name: GINGIN AERO Lat: -31.46 Lon: 115.86 Height: 73.0 m
Data from the previous 72 hours. | See also: Recent months at Gingin Airport
Date/Time
WST
Temp
°C
App
Temp
°C
Dew
Point
Rel
Hum
%
Delta-T
°C
Wind Press
QNH
hPa
Press
MSL
hPa
Rain
since 9 am
mm
Dir
 
Spd
km/h
Gust
km/h
Spd
kts
Gust
kts
30/08:30pm 17.6 14.4 10.0 61 4.0 SW 17 24 9 13 1015.7 1015.6 0.0
30/08:00pm 17.5 13.9 9.7 60 4.1 WSW 19 24 10 13 1015.6 1015.5 0.0
30/07:30pm 17.6 13.8 9.8 60 4.1 WSW 20 28 11 15 1015.4 1015.3 0.0
30/07:00pm 17.7 13.2 10.1 61 4.0 SW 24 35 13 19 1015.1 1015.0 0.0
30/06:30pm 17.9 13.9 10.5 62 4.0 WSW 22 30 12 16 1014.8 1014.7 0.0
30/06:00pm 17.9 13.7 11.2 65 3.6 WSW 24 33 13 18 1014.5 1014.4 0.0
30/05:30pm 18.4 14.0 10.5 60 4.3 WSW 24 32 13 17 1014.4 1014.3 0.0
30/05:00pm 18.6 13.2 10.9 61 4.2 SW 30 35 16 19 1014.4 1014.3 0.0
30/04:30pm 18.9 13.2 11.2 61 4.2 WSW 32 39 17 21 1014.1 1014.0 0.0
30/04:00pm 19.4 13.9 10.4 56 4.9 WSW 30 39 16 21 1014.1 1014.0 0.0
30/03:30pm 20.5 15.8 10.6 53 5.4 WSW 26 37 14 20 1013.9 1013.8 0.0
30/03:00pm 20.3 15.0 11.2 56 5.0 WSW 30 41 16 22 1013.7 1013.6 0.0
30/02:30pm 20.8 15.1 11.2 54 5.3 SSW 32 43 17 23 1013.7 1013.6 0.0
30/02:00pm 20.9 16.5 11.8 56 5.1 WSW 26 33 14 18 1013.7 1013.6 0.0
30/01:30pm 22.1 17.8 12.1 53 5.7 WSW 26 33 14 18 1013.7 1013.6 0.0
30/01:00pm 21.1 16.6 11.4 54 5.4 SW 26 35 14 19 1013.9 1013.8 0.0
30/12:30pm 21.7 17.3 11.7 53 5.6 WSW 26 41 14 22 1014.1 1014.0 0.0
30/12:00pm 21.7 16.9 11.7 53 5.6 WSW 28 39 15 21 1014.2 1014.1 0.0
30/11:30am 21.7 18.4 12.8 57 5.1 SW 22 33 12 18 1014.1 1014.0 0.0
30/11:00am 21.1 18.9 13.3 61 4.5 SW 17 26 9 14 1014.0 1013.9 0.0
30/10:30am 20.8 18.1 13.5 63 4.2 SW 20 26 11 14 1014.2 1014.1 0.0
30/10:00am 19.6 17.3 14.6 73 2.9 SW 20 28 11 15 1014.6 1014.5 0.0
30/09:30am 19.5 17.3 14.3 72 3.0 SW 19 26 10 14 1014.7 1014.6 0.0
30/09:00am 19.1 16.3 14.4 74 2.7 WSW 22 30 12 16 1014.7 1014.6 0.0
30/08:30am 18.9 17.2 14.6 76 2.5 SW 17 24 9 13 1014.6 1014.5 0.0
30/08:00am 18.1 16.6 15.2 83 1.7 SW 17 20 9 11 1014.7 1014.6 0.0
30/07:30am 17.7 16.1 16.0 90 1.0 SSW 19 26 10 14 1014.7 1014.6 0.0
30/07:00am 17.0 15.7 15.9 93 0.6 SW 17 24 9 13 1014.6 1014.5 0.0
30/06:30am 16.8 15.6 16.2 96 0.4 SW 17 20 9 11 1014.4 1014.3 0.0
30/06:00am 16.7 15.5 16.1 96 0.4 SW 17 22 9 12 1014.2 1014.1 0.0
30/05:30am 16.6 15.8 16.1 97 0.3 SW 15 20 8 11 1014.1 1014.0 0.0
30/05:00am 16.6 15.8 16.1 97 0.3 SW 15 24 8 13 1014.0 1013.9 0.0
30/04:30am 16.7 15.9 16.2 97 0.3 SW 15 22 8 12 1013.7 1013.6 0.0
30/04:00am 16.8 16.2 16.6 99 0.1 SW 15 26 8 14 1013.8 1013.7 0.0
30/03:30am 16.9 16.0 16.9 100 0.0 SW 17 22 9 12 1013.7 1013.6 0.0
30/03:00am 16.9 16.4 16.9 100 0.0 SSW 15 20 8 11 1013.7 1013.6 0.0
30/02:30am 16.8 15.9 16.8 100 0.0 SSW 17 22 9 12 1013.4 1013.3 0.0
30/02:00am 16.7 16.1 16.7 100 0.0 SSW 15 22 8 12 1013.4 1013.3 0.0
30/01:30am 16.9 16.8 16.9 100 0.0 SSW 13 20 7 11 1013.6 1013.5 0.0
30/01:00am 16.3 15.9 16.3 100 0.0 SW 13 19 7 10 1013.6 1013.5 0.0
30/12:30am 16.3 16.3 16.3 100 0.0 SW 11 17 6 9 1013.6 1013.5 0.0
30/12:00am 16.3 16.3 16.3 100 0.0 SW 11 15 6 8 1013.9 1013.8 0.0
 
Date/Time
WST
Temp
°C
App
Temp
°C
Dew
Point
Rel
Hum
%
Delta-T
°C
Wind Press
QNH
hPa
Press
MSL
hPa
Rain
since 9 am
mm
Dir
 
Spd
km/h
Gust
km/h
Spd
kts
Gust
kts
29/11:30pm 16.0 15.9 16.0 100 0.0 WSW 11 17 6 9 1014.2 1014.1 0.0
29/11:00pm 15.6 15.4 15.6 100 0.0 WSW 11 13 6 7 1014.2 1014.1 0.0
29/10:30pm 16.5 16.2 16.5 100 0.0 WSW 13 17 7 9 1014.2 1014.1 0.0
29/10:00pm 16.7 16.9 16.7 100 0.0 SW 11 13 6 7 1014.3 1014.2 0.0
29/09:30pm 17.0 17.3 17.0 100 0.0 SSW 11 13 6 7 1014.1 1014.0 0.0
29/09:00pm 17.4 17.9 17.4 100 0.0 SW 11 17 6 9 1014.1 1014.0 0.0
29/08:30pm 17.7 17.5 17.7 100 0.0 WSW 15 17 8 9 1013.8 1013.7 0.0
29/08:00pm 18.3 17.2 17.7 96 0.4 SW 20 26 11 14 1013.4 1013.3 0.0
29/07:30pm 18.9 17.9 17.6 92 0.8 SW 19 24 10 13 1013.1 1013.0 0.0
29/07:00pm 19.5 19.0 16.9 85 1.6 WSW 15 20 8 11 1013.4 1013.3 0.0
29/06:30pm 20.2 18.9 16.8 81 2.1 SW 19 24 10 13 1012.6 1012.5 0.0
29/06:00pm 21.0 19.1 16.8 77 2.6 WSW 22 30 12 16 1012.8 1012.7 0.0
29/05:30pm 21.9 21.0 16.8 73 3.1 SW 17 24 9 13 1012.7 1012.6 0.0
29/05:00pm 22.7 21.4 16.7 69 3.7 SW 19 24 10 13 1012.5 1012.4 0.0
29/04:30pm 22.3 21.3 16.6 70 3.5 SW 17 20 9 11 1012.4 1012.3 0.0
29/04:00pm 22.3 20.6 16.3 69 3.6 SW 20 28 11 15 1012.5 1012.4 0.0
29/03:30pm 22.0 20.1 15.8 68 3.7 WSW 20 26 11 14 1012.5 1012.4 0.0
29/03:00pm 24.0 21.4 15.8 60 5.0 WSW 24 30 13 16 1012.3 1012.2 0.0
29/02:30pm 27.7 26.0 15.7 48 7.4 WSW 19 28 10 15 1012.3 1012.2 0.0
29/02:00pm 27.0 26.0 15.7 50 6.9 SSW 15 20 8 11 1012.2 1012.1 0.0
29/01:30pm 26.6 25.4 15.0 49 7.0 SW 15 20 8 11 1012.7 1012.6 0.0
29/01:00pm 24.9 22.2 14.7 53 6.1 SW 22 30 12 16 1012.9 1012.8 0.0
29/12:30pm 27.1 24.5 15.8 50 6.9 W 24 35 13 19 1012.8 1012.7 0.0
29/12:00pm 26.6 23.8 14.4 47 7.3 SW 22 30 12 16 1012.4 1012.3 0.0
29/11:30am 26.7 24.4 14.1 46 7.5 S 19 26 10 14 1012.6 1012.5 0.0
29/11:00am 26.1 24.5 14.9 50 6.8 SSW 17 26 9 14 1012.8 1012.7 0.0
29/10:30am 25.3 24.6 15.3 54 6.1 SSW 13 20 7 11 1013.3 1013.2 0.0
29/10:00am 23.6 22.3 13.8 54 5.7 S 13 15 7 8 1013.6 1013.5 0.0
29/09:30am 22.9 20.5 13.9 57 5.3 SSW 19 22 10 12 1013.4 1013.3 0.0
29/09:00am 22.4 22.0 15.3 64 4.2 S 11 15 6 8 1013.2 1013.1 0.0
29/08:30am 21.1 20.8 15.4 70 3.4 S 11 15 6 8 1013.3 1013.2 0.0
29/08:00am 19.4 18.6 15.1 76 2.5 S 13 17 7 9 1013.3 1013.2 0.0
29/07:30am 19.1 18.4 15.4 79 2.2 S 13 17 7 9 1013.2 1013.1 0.0
29/07:00am 17.9 19.3 17.9 100 0.0 S 7 9 4 5 1013.1 1013.0 0.0
29/06:30am 16.1 16.8 16.1 100 0.0 S 7 9 4 5 1012.7 1012.6 0.0
29/06:00am 15.9 16.7 15.9 100 0.0 E 6 7 3 4 1012.8 1012.7 0.0
29/05:30am 16.2 18.3 16.2 100 0.0 CALM 0 6 0 3 1012.8 1012.7 0.0
29/05:00am 17.7 19.6 17.7 100 0.0 SSW 4 7 2 4 1012.7 1012.6 0.0
29/04:30am 17.7 19.1 17.7 100 0.0 SW 7 9 4 5 1012.3 1012.2 0.0
29/04:00am 17.4 18.8 17.4 100 0.0 NW 6 11 3 6 1012.4 1012.3 0.0
29/03:30am 17.0 18.3 17.0 100 0.0 ENE 6 15 3 8 1011.7 1011.6 0.0
29/03:00am 17.6 19.1 17.6 100 0.0 SSW 6 9 3 5 1011.7 1011.6 0.0
29/02:30am 17.5 18.8 17.5 100 0.0 S 7 11 4 6 1011.4 1011.3 0.0
29/02:00am 17.4 17.9 17.4 100 0.0 S 11 15 6 8 1011.3 1011.2 0.0
29/01:30am 17.2 18.0 17.2 100 0.0 SSW 9 13 5 7 1011.3 1011.2 0.0
29/01:00am 16.9 17.9 16.9 100 0.0 S 7 11 4 6 1011.6 1011.5 0.0
29/12:30am 16.4 18.3 15.8 96 0.4 CALM 0 0 0 0 1012.4 1012.3 0.0
29/12:00am 17.3 19.4 16.3 94 0.6 CALM 0 0 0 0 1012.8 1012.7 0.0
 
Date/Time
WST
Temp
°C
App
Temp
°C
Dew
Point
Rel
Hum
%
Delta-T
°C
Wind Press
QNH
hPa
Press
MSL
hPa
Rain
since 9 am
mm
Dir
 
Spd
km/h
Gust
km/h
Spd
kts
Gust
kts
28/11:30pm 17.5 18.3 16.4 93 0.7 S 7 9 4 5 1013.1 1013.0 0.0
28/11:00pm 17.5 19.5 16.0 91 0.9 CALM 0 0 0 0 1013.1 1013.0 0.0
28/10:30pm 17.9 19.3 15.3 85 1.5 S 2 6 1 3 1013.1 1013.0 0.0
28/10:00pm 19.1 19.8 16.0 82 1.9 S 7 9 4 5 1013.2 1013.1 0.0
28/09:30pm 19.9 19.9 16.2 79 2.2 SSW 11 13 6 7 1013.2 1013.1 0.0
28/09:00pm 20.5 19.6 15.9 75 2.8 SSW 15 20 8 11 1013.2 1013.1 0.0
28/08:30pm 20.9 19.9 15.7 72 3.1 SSW 15 20 8 11 1012.9 1012.8 0.0
28/08:00pm 21.3 21.1 15.6 70 3.4 SSW 11 17 6 9 1012.9 1012.8 0.0
28/07:30pm 21.8 20.3 15.4 67 3.8 SSW 17 22 9 12 1012.5 1012.4 0.0
28/07:00pm 22.8 21.7 15.4 63 4.4 SSW 15 19 8 10 1012.1 1012.0 0.0
28/06:30pm 24.0 22.6 15.5 59 5.1 SSW 17 19 9 10 1012.1 1012.0 0.0
28/06:00pm 25.3 23.9 15.6 55 5.9 SSW 17 22 9 12 1011.6 1011.5 0.0
28/05:30pm 25.6 24.3 15.9 55 5.9 SSW 17 24 9 13 1011.6 1011.5 0.0
28/05:00pm 26.4 24.0 15.4 50 6.7 SSW 22 28 12 15 1011.5 1011.4 0.0
28/04:30pm 27.0 25.2 15.4 49 7.1 SSW 19 28 10 15 1011.6 1011.5 0.0
28/04:00pm 27.5 25.6 15.8 48 7.2 SSW 20 26 11 14 1011.7 1011.6 0.0
28/03:30pm 28.2 25.7 15.1 44 8.0 SW 22 28 12 15 1011.9 1011.8 0.0
28/03:00pm 30.3 28.2 15.2 40 9.3 SW 20 26 11 14 1012.0 1011.9 0.0
28/02:30pm 31.6 29.8 7.3 22 13.3 ENE 6 7 3 4 1012.2 1012.1 0.0
28/02:00pm 31.4 29.6 7.8 23 13.0 NW 7 11 4 6 1012.3 1012.2 0.0
28/01:30pm 31.3 29.4 8.9 25 12.6 N 9 20 5 11 1012.8 1012.7 0.0
28/01:00pm 31.1 29.1 8.8 25 12.5 ENE 9 19 5 10 1013.2 1013.1 0.0
28/12:30pm 31.2 28.8 8.8 25 12.5 N 11 19 6 10 1013.4 1013.3 0.0
28/12:00pm 30.4 27.9 9.8 28 11.7 E 13 22 7 12 1013.7 1013.6 0.0
28/11:30am 29.0 26.3 10.2 31 10.6 NNE 15 20 8 11 1014.3 1014.2 0.0
28/11:00am 28.2 24.6 8.5 29 10.8 NNE 17 20 9 11 1014.6 1014.5 0.0
28/10:30am 27.2 23.3 9.5 33 9.8 ENE 20 28 11 15 1015.1 1015.0 0.0
28/10:00am 25.3 23.2 11.1 41 8.0 E 13 22 7 12 1015.6 1015.5 0.0
28/09:30am 23.3 19.7 10.7 45 7.0 E 20 28 11 15 1015.8 1015.7 0.0
28/09:00am 21.7 18.3 10.5 49 6.1 E 19 26 10 14 1015.9 1015.8 0.0
28/08:30am 20.9 16.9 10.4 51 5.7 E 22 28 12 15 1016.0 1015.9 0.0
28/08:00am 20.5 16.5 10.3 52 5.5 E 22 28 12 15 1016.0 1015.9 0.0
28/07:30am 18.9 14.8 10.2 57 4.7 E 22 30 12 16 1016.3 1016.2 0.0
28/07:00am 18.2 14.1 10.1 59 4.3 E 22 32 12 17 1016.3 1016.2 0.0
28/06:30am 16.4 12.7 10.0 66 3.4 E 20 28 11 15 1016.5 1016.4 0.0
28/06:00am 15.0 12.9 9.8 71 2.7 SSE 11 13 6 7 1016.6 1016.5 0.0
28/05:30am 15.3 13.1 9.2 67 3.1 SE 11 19 6 10 1016.1 1016.0 0.0
28/05:00am 15.8 12.0 9.0 64 3.5 ESE 19 20 10 11 1016.0 1015.9 0.0
28/04:30am 16.0 12.9 8.7 62 3.7 ESE 15 20 8 11 1016.2 1016.1 0.0
28/04:00am 15.3 12.8 8.3 63 3.5 SE 11 19 6 10 1016.2 1016.1 0.0
28/03:30am 15.7 13.3 8.7 63 3.6 SE 11 15 6 8 1016.4 1016.3 0.0
28/03:00am 15.8 12.3 8.8 63 3.6 ESE 17 20 9 11 1016.7 1016.6 0.0
28/02:30am 14.8 12.1 9.0 68 3.0 ESE 13 17 7 9 1017.0 1016.9 0.0
28/02:00am 13.9 11.5 9.9 77 2.1 SE 13 15 7 8 1016.6 1016.5 0.0
28/01:30am 13.2 10.7 10.9 86 1.2 SSE 15 17 8 9 1016.8 1016.7 0.0
28/01:00am 13.2 11.5 12.3 94 0.5 SSE 13 15 7 8 1016.9 1016.8 0.0
28/12:30am 13.0 12.1 12.5 97 0.3 SSE 9 11 5 6 1017.5 1017.3 0.0
28/12:00am 13.3 12.3 12.4 94 0.5 SE 9 11 5 6 1017.9 1017.7 0.0
 
Date/Time
WST
Temp
°C
App
Temp
°C
Dew
Point
Rel
Hum
%
Delta-T
°C
Wind Press
QNH
hPa
Press
MSL
hPa
Rain
since 9 am
mm
Dir
 
Spd
km/h
Gust
km/h
Spd
kts
Gust
kts
27/11:30pm 13.9 12.6 12.5 91 0.8 SSE 11 13 6 7 1018.0 1017.8 0.0
27/11:00pm 14.3 13.3 12.2 87 1.1 SSE 9 13 5 7 1018.3 1018.1 0.0
27/10:30pm 14.8 13.3 11.9 83 1.6 SSE 11 15 6 8 1018.6 1018.5 0.0
27/10:00pm 15.7 13.8 11.7 77 2.2 SSE 13 15 7 8 1018.7 1018.6 0.0
27/09:30pm 16.4 14.1 11.8 74 2.5 SSE 15 19 8 10 1018.9 1018.8 0.0
27/09:00pm 16.7 13.9 11.2 70 3.0 SSE 17 20 9 11 1019.0 1018.9 0.0

Other Formats:

Comma delimited format used in spreadsheet applications
http://www.bom.gov.au/fwo/IDW60801/IDW60801.95612.axf

JavaScript Object Notation format (JSON) in row-major order
http://www.bom.gov.au/fwo/IDW60801/IDW60801.95612.json